Time;durP1;ratioP1;P1;durP2;ratioP2;P2;SDS_P1;SDS_P2;PMS_P1;PMS_P2;Temp;Humidity;BMP_temperature;BMP_pressure;BME280_temperature;BME280_humidity;BME280_pressure;Samples;Min_cycle;Max_cycle;Signal;HPM_P1;HPM_P2
2023/06/21 00:00:28;;;;;;;23.60;15.68;;;;;;;;;;5040429;28;20038;-75
2023/06/21 00:02:54;;;;;;;23.77;15.50;;;;;;;;;;5040653;28;20056;-75
2023/06/21 00:05:20;;;;;;;24.25;15.85;;;;;;;;;;5040470;28;20029;-75
2023/06/21 00:07:47;;;;;;;23.70;16.25;;;;;;;;;;5040158;28;20503;-75
2023/06/21 00:10:14;;;;;;;25.23;16.20;;;;;;;;;;5039477;28;20068;-75
2023/06/21 00:12:40;;;;;;;29.00;18.38;;;;;;;;;;5038782;28;20029;-75
2023/06/21 00:15:06;;;;;;;30.33;19.65;;;;;;;;;;5035070;28;20484;-75
2023/06/21 00:17:32;;;;;;;31.90;20.90;;;;;;;;;;5034321;28;20392;-75
2023/06/21 00:19:58;;;;;;;29.85;19.83;;;;;;;;;;5034757;28;20387;-75
2023/06/21 00:22:24;;;;;;;30.73;21.25;;;;;;;;;;5035347;28;20571;-75
2023/06/21 00:24:51;;;;;;;36.97;21.58;;;;;;;;;;5035400;28;20029;-75
2023/06/21 00:27:18;;;;;;;36.75;22.55;;;;;;;;;;5035628;28;20029;-75
2023/06/21 00:29:44;;;;;;;33.72;20.67;;;;;;;;;;5035973;28;20376;-75
2023/06/21 00:32:10;;;;;;;32.03;20.42;;;;;;;;;;5035751;28;20083;-75
2023/06/21 00:34:36;;;;;;;35.03;22.30;;;;;;;;;;5035970;28;20029;-75
2023/06/21 00:37:02;;;;;;;32.97;21.52;;;;;;;;;;5036502;28;20021;-75
2023/06/21 00:39:28;;;;;;;36.42;22.30;;;;;;;;;;5036942;28;20037;-75
2023/06/21 00:41:55;;;;;;;36.20;22.42;;;;;;;;;;5036276;28;20108;-75
2023/06/21 00:44:21;;;;;;;36.83;21.77;;;;;;;;;;5037210;28;20029;-74
2023/06/21 00:46:49;;;;;;;38.22;23.35;;;;;;;;;;5037649;28;20040;-75
2023/06/21 00:49:15;;;;;;;36.45;23.48;;;;;;;;;;5036375;28;20056;-75
2023/06/21 00:51:42;;;;;;;35.38;24.05;;;;;;;;;;5036310;28;20041;-75
2023/06/21 00:54:15;;;;;;;34.67;22.80;;;;;;;;;;5037334;28;20079;-75
2023/06/21 00:56:41;;;;;;;32.55;21.73;;;;;;;;;;5036330;28;20022;-75
2023/06/21 00:59:09;;;;;;;32.88;22.08;;;;;;;;;;5036659;28;20484;-75
2023/06/21 01:01:38;;;;;;;35.28;21.98;;;;;;;;;;5037031;28;20026;-75
2023/06/21 01:04:08;;;;;;;31.02;20.52;;;;;;;;;;5036688;28;20022;-75
2023/06/21 01:06:34;;;;;;;;;;;;;;;;;;5037413;28;20052;-75
2023/06/21 01:09:21;;;;;;;31.98;20.90;;;;;;;;;;5036321;28;19934;-75
2023/06/21 01:11:58;;;;;;;29.77;19.17;;;;;;;;;;5035893;28;20032;-75
2023/06/21 01:14:27;;;;;;;33.47;19.33;;;;;;;;;;5036635;28;20195;-75
2023/06/21 01:16:54;;;;;;;36.50;22.08;;;;;;;;;;5036881;28;20100;-75
2023/06/21 01:19:41;;;;;;;32.90;20.35;;;;;;;;;;5037086;28;20042;-75
2023/06/21 01:22:16;;;;;;;29.45;20.48;;;;;;;;;;5037210;28;20030;-75
2023/06/21 01:24:47;;;;;;;32.15;20.70;;;;;;;;;;5036487;28;20066;-75
2023/06/21 01:27:31;;;;;;;30.13;20.98;;;;;;;;;;5037231;28;20024;-75
2023/06/21 01:29:59;;;;;;;31.33;19.55;;;;;;;;;;5036478;28;20056;-75
2023/06/21 01:32:27;;;;;;;33.03;18.88;;;;;;;;;;5035668;28;20025;-75
2023/06/21 01:34:54;;;;;;;36.47;21.05;;;;;;;;;;5035336;28;20033;-74
2023/06/21 01:37:20;;;;;;;31.55;20.77;;;;;;;;;;5035170;28;20056;-74
2023/06/21 01:39:46;;;;;;;31.77;19.88;;;;;;;;;;5035245;28;20068;-75
2023/06/21 01:42:12;;;;;;;39.35;20.95;;;;;;;;;;5035341;28;20031;-75
2023/06/21 01:44:38;;;;;;;32.53;19.48;;;;;;;;;;5035206;28;20026;-75
2023/06/21 01:47:05;;;;;;;34.92;18.95;;;;;;;;;;5035331;28;20022;-75
2023/06/21 01:49:31;;;;;;;33.85;19.02;;;;;;;;;;5034147;28;20060;-75
2023/06/21 01:51:57;;;;;;;36.47;20.25;;;;;;;;;;5034768;28;20354;-75
2023/06/21 01:54:25;;;;;;;32.83;19.17;;;;;;;;;;5034231;28;20028;-75
2023/06/21 01:56:53;;;;;;;37.42;20.55;;;;;;;;;;5034477;28;20024;-75
2023/06/21 01:59:18;;;;;;;33.25;19.17;;;;;;;;;;5033762;28;20088;-75
2023/06/21 02:01:50;;;;;;;36.80;19.85;;;;;;;;;;5033084;28;20022;-75
2023/06/21 02:04:16;;;;;;;35.50;20.40;;;;;;;;;;5032419;28;20683;-75
2023/06/21 02:06:43;;;;;;;36.47;19.88;;;;;;;;;;5033133;28;20037;-75
2023/06/21 02:09:09;;;;;;;36.30;20.33;;;;;;;;;;5036126;28;20040;-75
2023/06/21 02:11:36;;;;;;;33.05;19.15;;;;;;;;;;5036107;28;20087;-75
2023/06/21 02:14:02;;;;;;;34.55;20.27;;;;;;;;;;5035866;28;20029;-75
2023/06/21 02:16:29;;;;;;;32.92;19.48;;;;;;;;;;5038324;28;20053;-75
2023/06/21 02:18:55;;;;;;;30.65;18.77;;;;;;;;;;5039009;28;20033;-75
2023/06/21 02:21:21;;;;;;;32.65;17.90;;;;;;;;;;5039758;28;20041;-76
2023/06/21 02:23:47;;;;;;;32.30;18.00;;;;;;;;;;5040353;28;20053;-76
2023/06/21 02:26:13;;;;;;;32.78;18.70;;;;;;;;;;5040851;28;20022;-77
2023/06/21 02:28:41;;;;;;;30.73;17.48;;;;;;;;;;5041437;28;20026;-77
2023/06/21 02:31:06;;;;;;;29.80;16.63;;;;;;;;;;5041213;28;20018;-77
2023/06/21 02:33:32;;;;;;;28.63;17.13;;;;;;;;;;5040383;28;20025;-76
2023/06/21 02:36:00;;;;;;;29.63;17.52;;;;;;;;;;5035928;28;20025;-76
2023/06/21 02:38:26;;;;;;;31.08;17.42;;;;;;;;;;5037039;28;20108;-77
2023/06/21 02:40:53;;;;;;;30.52;17.38;;;;;;;;;;5036777;28;20037;-76
2023/06/21 02:43:19;;;;;;;29.40;17.17;;;;;;;;;;5037579;28;20026;-76
2023/06/21 02:45:45;;;;;;;29.20;16.58;;;;;;;;;;5037843;28;20060;-77
2023/06/21 02:48:11;;;;;;;25.58;15.95;;;;;;;;;;5038016;28;20029;-76
2023/06/21 02:50:37;;;;;;;29.05;16.30;;;;;;;;;;5037876;28;20057;-76
2023/06/21 02:53:03;;;;;;;25.77;15.60;;;;;;;;;;5037678;28;20032;-76
2023/06/21 02:55:30;;;;;;;24.83;16.08;;;;;;;;;;5038451;28;20101;-77
2023/06/21 02:57:56;;;;;;;28.85;17.45;;;;;;;;;;5038539;28;20033;-77
2023/06/21 03:00:23;;;;;;;34.25;17.73;;;;;;;;;;5038219;28;20041;-76
2023/06/21 03:02:52;;;;;;;28.10;16.13;;;;;;;;;;5038037;28;20148;-77
2023/06/21 03:05:19;;;;;;;28.40;15.87;;;;;;;;;;5038299;28;20025;-76
2023/06/21 03:07:46;;;;;;;26.65;15.00;;;;;;;;;;5037515;28;20270;-76
2023/06/21 03:10:13;;;;;;;26.40;14.95;;;;;;;;;;5038146;28;20112;-76
2023/06/21 03:12:42;;;;;;;27.65;14.73;;;;;;;;;;5036112;28;20097;-76
2023/06/21 03:15:09;;;;;;;26.08;13.85;;;;;;;;;;5038152;28;20033;-77
2023/06/21 03:17:36;;;;;;;22.85;14.07;;;;;;;;;;5037899;28;20028;-76
2023/06/21 03:20:03;;;;;;;25.08;14.85;;;;;;;;;;5035561;28;20041;-76
2023/06/21 03:22:29;;;;;;;22.70;13.75;;;;;;;;;;5035004;28;20018;-76
2023/06/21 03:24:55;;;;;;;25.30;13.73;;;;;;;;;;5036950;28;20034;-76
2023/06/21 03:27:20;;;;;;;24.98;14.30;;;;;;;;;;5038431;28;20113;-77
2023/06/21 03:29:46;;;;;;;23.90;13.13;;;;;;;;;;5036816;28;20519;-76
2023/06/21 03:32:13;;;;;;;28.05;14.48;;;;;;;;;;5038318;28;20025;-76
2023/06/21 03:34:39;;;;;;;24.52;11.98;;;;;;;;;;5037590;28;20025;-76
2023/06/21 03:37:05;;;;;;;21.67;12.10;;;;;;;;;;5038755;28;20036;-76
2023/06/21 03:39:31;;;;;;;23.50;12.48;;;;;;;;;;5039006;28;20038;-76
2023/06/21 03:41:57;;;;;;;22.25;12.32;;;;;;;;;;5037583;28;20469;-77
2023/06/21 03:44:23;;;;;;;18.77;10.75;;;;;;;;;;5035020;28;20060;-77
2023/06/21 03:46:49;;;;;;;24.23;11.82;;;;;;;;;;5037291;28;20033;-77
2023/06/21 03:49:16;;;;;;;18.55;12.00;;;;;;;;;;5036817;28;20069;-76
2023/06/21 03:51:43;;;;;;;21.90;11.68;;;;;;;;;;5038035;28;20068;-76
2023/06/21 03:54:08;;;;;;;19.50;11.57;;;;;;;;;;5037171;28;20025;-76
2023/06/21 03:56:34;;;;;;;19.60;10.77;;;;;;;;;;5037920;28;20071;-77
2023/06/21 03:59:00;;;;;;;19.05;10.30;;;;;;;;;;5037728;28;20333;-77
2023/06/21 04:01:26;;;;;;;16.30;9.95;;;;;;;;;;5034976;28;20037;-76
2023/06/21 04:03:52;;;;;;;17.88;9.00;;;;;;;;;;5035518;28;20025;-76
2023/06/21 04:06:18;;;;;;;18.00;10.73;;;;;;;;;;5035096;28;20104;-76
2023/06/21 04:08:44;;;;;;;20.92;10.15;;;;;;;;;;5040103;28;20048;-77
2023/06/21 04:11:10;;;;;;;15.07;9.90;;;;;;;;;;5040862;28;20087;-76
2023/06/21 04:13:36;;;;;;;16.40;9.88;;;;;;;;;;5038165;28;20025;-77
2023/06/21 04:16:02;;;;;;;15.73;10.07;;;;;;;;;;5037311;28;20106;-76
2023/06/21 04:18:28;;;;;;;18.00;10.55;;;;;;;;;;5039982;28;20026;-76
2023/06/21 04:20:54;;;;;;;18.45;10.35;;;;;;;;;;5035012;28;20540;-76
2023/06/21 04:23:20;;;;;;;13.77;9.90;;;;;;;;;;5040459;28;20033;-76
2023/06/21 04:25:46;;;;;;;19.55;10.15;;;;;;;;;;5037347;28;20030;-76
2023/06/21 04:28:12;;;;;;;17.95;10.52;;;;;;;;;;5036558;28;20025;-77
2023/06/21 04:30:38;;;;;;;19.80;9.68;;;;;;;;;;5036075;28;20124;-76
2023/06/21 04:33:04;;;;;;;18.02;11.30;;;;;;;;;;5036581;28;20080;-76
2023/06/21 04:35:33;;;;;;;20.73;10.80;;;;;;;;;;5035566;28;20025;-76
2023/06/21 04:38:00;;;;;;;17.85;10.02;;;;;;;;;;5036797;28;20079;-76
2023/06/21 04:40:26;;;;;;;20.40;11.23;;;;;;;;;;5035795;28;20029;-77
2023/06/21 04:42:55;;;;;;;20.42;10.55;;;;;;;;;;5034743;28;20465;-77
2023/06/21 04:45:21;;;;;;;18.30;10.90;;;;;;;;;;5032886;28;20022;-77
2023/06/21 04:47:47;;;;;;;17.35;11.95;;;;;;;;;;5034163;28;20025;-77
2023/06/21 04:50:14;;;;;;;18.50;12.15;;;;;;;;;;5032582;28;20515;-77
2023/06/21 04:52:40;;;;;;;17.88;12.70;;;;;;;;;;5033016;28;20021;-76
2023/06/21 04:55:06;;;;;;;19.65;13.35;;;;;;;;;;5032845;28;20032;-77
2023/06/21 04:57:33;;;;;;;21.80;13.82;;;;;;;;;;5032781;28;20453;-77
2023/06/21 04:59:59;;;;;;;21.30;14.13;;;;;;;;;;5032879;28;20029;-77
2023/06/21 05:02:25;;;;;;;17.40;13.73;;;;;;;;;;5032695;28;20048;-77
2023/06/21 05:04:51;;;;;;;18.55;13.18;;;;;;;;;;5032905;28;20032;-77
2023/06/21 05:07:18;;;;;;;17.67;11.95;;;;;;;;;;5031421;28;20033;-74
2023/06/21 05:09:44;;;;;;;14.63;11.73;;;;;;;;;;5032469;28;20032;-74
2023/06/21 05:12:10;;;;;;;16.23;12.68;;;;;;;;;;5032096;28;20373;-73
2023/06/21 05:14:36;;;;;;;17.10;11.63;;;;;;;;;;5032191;28;20033;-74
2023/06/21 05:17:02;;;;;;;16.27;11.43;;;;;;;;;;5032457;28;20029;-74
2023/06/21 05:19:28;;;;;;;13.40;9.70;;;;;;;;;;5032312;28;20696;-74
2023/06/21 05:21:54;;;;;;;14.77;9.68;;;;;;;;;;5032361;28;20028;-74
2023/06/21 05:24:20;;;;;;;16.45;10.63;;;;;;;;;;5032331;28;20025;-74
2023/06/21 05:26:46;;;;;;;14.52;10.15;;;;;;;;;;5032282;28;20061;-74
2023/06/21 05:29:12;;;;;;;11.00;8.98;;;;;;;;;;5032276;28;20045;-74
2023/06/21 05:31:38;;;;;;;10.27;8.27;;;;;;;;;;5032249;28;20018;-74
2023/06/21 05:34:04;;;;;;;11.90;8.55;;;;;;;;;;5032236;28;20022;-74
2023/06/21 05:36:30;;;;;;;12.38;8.23;;;;;;;;;;5032265;28;20080;-74
2023/06/21 05:38:56;;;;;;;12.27;8.15;;;;;;;;;;5032162;28;20104;-74
2023/06/21 05:41:22;;;;;;;13.82;8.15;;;;;;;;;;5032707;28;20029;-74
2023/06/21 05:43:48;;;;;;;10.93;7.80;;;;;;;;;;5036321;28;20428;-74
2023/06/21 05:46:14;;;;;;;12.60;7.32;;;;;;;;;;5036271;28;20112;-74
2023/06/21 05:48:40;;;;;;;11.70;7.70;;;;;;;;;;5034974;28;20079;-74
2023/06/21 05:51:06;;;;;;;9.80;7.65;;;;;;;;;;5036207;28;20060;-74
2023/06/21 05:53:32;;;;;;;9.95;7.70;;;;;;;;;;5036079;28;20087;-74
2023/06/21 05:55:59;;;;;;;11.02;7.43;;;;;;;;;;5036098;28;20388;-74
2023/06/21 05:58:25;;;;;;;10.02;7.60;;;;;;;;;;5036308;28;20056;-74
2023/06/21 06:00:51;;;;;;;10.27;7.60;;;;;;;;;;5035955;28;20069;-74
2023/06/21 06:03:18;;;;;;;9.80;6.90;;;;;;;;;;5035945;28;20029;-74
2023/06/21 06:05:47;;;;;;;9.82;7.13;;;;;;;;;;5036084;28;20092;-74
2023/06/21 06:08:13;;;;;;;7.20;6.47;;;;;;;;;;5035964;28;20021;-74
2023/06/21 06:10:39;;;;;;;10.23;5.75;;;;;;;;;;5035825;28;20032;-74
2023/06/21 06:13:05;;;;;;;6.63;5.90;;;;;;;;;;5035876;28;20583;-74
2023/06/21 06:15:31;;;;;;;7.03;5.10;;;;;;;;;;5035671;28;20030;-74
2023/06/21 06:17:57;;;;;;;7.38;5.68;;;;;;;;;;5035653;28;20032;-74
2023/06/21 06:20:23;;;;;;;7.10;5.47;;;;;;;;;;5035547;28;20033;-74
2023/06/21 06:22:50;;;;;;;7.90;5.30;;;;;;;;;;5035907;28;20441;-75
2023/06/21 06:25:16;;;;;;;6.90;5.03;;;;;;;;;;5035626;28;20021;-74
2023/06/21 06:27:42;;;;;;;5.43;4.80;;;;;;;;;;5035751;28;20028;-75
2023/06/21 06:30:08;;;;;;;6.07;4.60;;;;;;;;;;5035375;28;20511;-75
2023/06/21 06:32:34;;;;;;;7.78;5.22;;;;;;;;;;5035695;28;20105;-75
2023/06/21 06:35:00;;;;;;;6.47;5.03;;;;;;;;;;5035357;28;20081;-74
2023/06/21 06:37:27;;;;;;;5.90;5.00;;;;;;;;;;5035325;28;20577;-75
2023/06/21 06:39:54;;;;;;;8.05;5.38;;;;;;;;;;5035261;28;20033;-74
2023/06/21 06:42:20;;;;;;;7.82;5.18;;;;;;;;;;5035023;28;20033;-75
2023/06/21 06:44:47;;;;;;;5.95;4.47;;;;;;;;;;5035112;28;20025;-75
2023/06/21 06:47:13;;;;;;;6.45;4.50;;;;;;;;;;5035492;28;20091;-75
2023/06/21 06:49:39;;;;;;;5.05;4.32;;;;;;;;;;5034463;28;20042;-75
2023/06/21 06:52:05;;;;;;;5.82;4.50;;;;;;;;;;5034947;28;20075;-75
2023/06/21 06:54:31;;;;;;;5.32;4.30;;;;;;;;;;5033600;28;20571;-74
2023/06/21 06:56:57;;;;;;;5.50;3.90;;;;;;;;;;5035196;28;20445;-74
2023/06/21 06:59:23;;;;;;;5.35;4.50;;;;;;;;;;5033816;28;20056;-74
2023/06/21 07:01:50;;;;;;;6.43;4.05;;;;;;;;;;5034877;28;20457;-75
2023/06/21 07:04:16;;;;;;;5.25;3.75;;;;;;;;;;5034880;28;20029;-75
2023/06/21 07:06:42;;;;;;;6.47;4.20;;;;;;;;;;5034756;28;20034;-75
2023/06/21 07:09:08;;;;;;;7.35;4.30;;;;;;;;;;5034729;28;20539;-75
2023/06/21 07:11:34;;;;;;;6.05;3.97;;;;;;;;;;5034781;28;20049;-75
2023/06/21 07:14:01;;;;;;;6.25;3.92;;;;;;;;;;5034733;28;20075;-75
2023/06/21 07:16:30;;;;;;;6.35;3.85;;;;;;;;;;5034673;28;20018;-75
2023/06/21 07:18:56;;;;;;;9.10;4.63;;;;;;;;;;5034438;28;20496;-75
2023/06/21 07:21:25;;;;;;;6.70;4.35;;;;;;;;;;5034547;28;20029;-75
2023/06/21 07:23:51;;;;;;;7.80;4.00;;;;;;;;;;5034978;28;20109;-75
2023/06/21 07:26:16;;;;;;;7.78;4.50;;;;;;;;;;5034394;28;20108;-75
2023/06/21 07:28:42;;;;;;;5.43;3.72;;;;;;;;;;5034432;28;20105;-75
2023/06/21 07:31:08;;;;;;;4.95;3.42;;;;;;;;;;5034453;28;20021;-75
2023/06/21 07:33:34;;;;;;;5.75;4.18;;;;;;;;;;5034288;28;20663;-75
2023/06/21 07:36:00;;;;;;;6.35;4.07;;;;;;;;;;5034482;28;20108;-75
2023/06/21 07:38:26;;;;;;;6.03;4.22;;;;;;;;;;5034367;28;20049;-75
2023/06/21 07:40:52;;;;;;;6.00;4.15;;;;;;;;;;5030656;28;20053;-75
2023/06/21 07:43:18;;;;;;;4.40;3.83;;;;;;;;;;5014270;28;20026;-75
2023/06/21 07:45:44;;;;;;;5.63;3.53;;;;;;;;;;5014257;28;20018;-75
2023/06/21 07:48:10;;;;;;;4.72;3.85;;;;;;;;;;5014362;28;20360;-75
2023/06/21 07:50:38;;;;;;;4.95;3.90;;;;;;;;;;5014807;28;20073;-75
2023/06/21 07:53:04;;;;;;;7.03;4.00;;;;;;;;;;5014519;28;20034;-75
2023/06/21 07:55:30;;;;;;;6.38;4.20;;;;;;;;;;5014370;28;20041;-75
2023/06/21 07:57:56;;;;;;;8.05;5.53;;;;;;;;;;5014222;28;20026;-75
2023/06/21 08:00:22;;;;;;;5.43;4.53;;;;;;;;;;5013946;28;20056;-75
2023/06/21 08:02:49;;;;;;;5.20;4.53;;;;;;;;;;5014060;28;20053;-75
2023/06/21 08:05:16;;;;;;;5.43;4.55;;;;;;;;;;5013806;28;20472;-75
2023/06/21 08:07:42;;;;;;;6.82;4.50;;;;;;;;;;5014010;28;20054;-75
2023/06/21 08:10:08;;;;;;;4.88;4.07;;;;;;;;;;5013749;28;20073;-75
2023/06/21 08:12:34;;;;;;;5.40;4.82;;;;;;;;;;5013866;28;20026;-75
2023/06/21 08:15:00;;;;;;;5.63;4.68;;;;;;;;;;5013765;28;20097;-75
2023/06/21 08:17:26;;;;;;;5.97;4.60;;;;;;;;;;5013839;28;20025;-75
2023/06/21 08:19:52;;;;;;;6.35;5.15;;;;;;;;;;5013831;28;20042;-75
2023/06/21 08:22:18;;;;;;;6.88;5.78;;;;;;;;;;5014202;28;20419;-75
2023/06/21 08:24:44;;;;;;;9.98;6.40;;;;;;;;;;5014099;28;20026;-75
2023/06/21 08:27:11;;;;;;;6.32;5.65;;;;;;;;;;5034174;28;20064;-76
2023/06/21 08:29:37;;;;;;;8.52;6.05;;;;;;;;;;5033466;28;20034;-76
2023/06/21 08:32:04;;;;;;;6.63;5.68;;;;;;;;;;5033920;28;20453;-76
2023/06/21 08:34:30;;;;;;;6.72;5.60;;;;;;;;;;5034155;28;20018;-75
2023/06/21 08:36:56;;;;;;;6.82;5.22;;;;;;;;;;5033853;28;20033;-75
2023/06/21 08:39:22;;;;;;;5.13;4.63;;;;;;;;;;5033948;28;20052;-75
2023/06/21 08:41:48;;;;;;;8.73;6.32;;;;;;;;;;5033862;28;20021;-76
2023/06/21 08:44:17;;;;;;;7.30;5.90;;;;;;;;;;5034185;28;20032;-76
2023/06/21 08:46:46;;;;;;;7.30;5.50;;;;;;;;;;5035086;28;20025;-76
2023/06/21 08:49:16;;;;;;;6.65;5.75;;;;;;;;;;5033047;28;20053;-77
2023/06/21 08:51:43;;;;;;;7.72;5.80;;;;;;;;;;5034383;28;20030;-77
2023/06/21 08:54:10;;;;;;;6.07;5.30;;;;;;;;;;5034422;28;20025;-77
2023/06/21 08:56:47;;;;;;;6.85;6.13;;;;;;;;;;5034662;28;20037;-77
2023/06/21 08:59:18;;;;;;;7.05;5.88;;;;;;;;;;5035159;28;20037;-76
2023/06/21 09:01:49;;;;;;;8.13;5.85;;;;;;;;;;5035033;28;20029;-77
2023/06/21 09:04:16;;;;;;;7.35;5.70;;;;;;;;;;5035634;28;20097;-77
2023/06/21 09:06:43;;;;;;;6.13;5.47;;;;;;;;;;5035834;28;20495;-76
2023/06/21 09:09:10;;;;;;;7.63;5.60;;;;;;;;;;5036269;28;20104;-77
2023/06/21 09:11:37;;;;;;;6.53;5.70;;;;;;;;;;5036920;28;20440;-76
2023/06/21 09:14:03;;;;;;;6.57;5.97;;;;;;;;;;5036201;28;20025;-77
2023/06/21 09:16:30;;;;;;;6.82;6.13;;;;;;;;;;5032257;28;20021;-76
2023/06/21 09:18:56;;;;;;;7.85;6.10;;;;;;;;;;5032504;28;20025;-76
2023/06/21 09:21:22;;;;;;;9.00;7.22;;;;;;;;;;5032824;28;20035;-76
2023/06/21 09:23:48;;;;;;;8.48;6.00;;;;;;;;;;5032501;28;20026;-76
2023/06/21 09:26:14;;;;;;;7.93;7.15;;;;;;;;;;5032348;28;20033;-76
2023/06/21 09:28:41;;;;;;;9.32;7.32;;;;;;;;;;5033967;28;20483;-76
2023/06/21 09:31:07;;;;;;;9.13;7.60;;;;;;;;;;5032934;28;20026;-75
2023/06/21 09:33:36;;;;;;;8.88;7.90;;;;;;;;;;5033298;28;20364;-76
2023/06/21 09:36:02;;;;;;;10.07;8.40;;;;;;;;;;5034067;28;20048;-76
2023/06/21 09:38:32;;;;;;;10.10;8.73;;;;;;;;;;5034048;28;20029;-76
2023/06/21 09:41:00;;;;;;;12.13;9.25;;;;;;;;;;5033984;28;20029;-76
2023/06/21 09:43:26;;;;;;;10.00;8.25;;;;;;;;;;5034752;28;20160;-76
2023/06/21 09:46:05;;;;;;;10.82;8.90;;;;;;;;;;5034845;28;20399;-76
2023/06/21 09:48:34;;;;;;;8.98;8.07;;;;;;;;;;5035027;28;20469;-76
2023/06/21 09:51:04;;;;;;;10.00;9.00;;;;;;;;;;5034762;28;20527;-76
2023/06/21 09:53:30;;;;;;;11.25;8.90;;;;;;;;;;5035445;28;20017;-76
2023/06/21 09:55:56;;;;;;;10.48;8.48;;;;;;;;;;5035097;28;20025;-76
2023/06/21 09:58:23;;;;;;;10.52;8.82;;;;;;;;;;5035285;28;20021;-76
2023/06/21 10:00:49;;;;;;;8.98;8.07;;;;;;;;;;5035340;28;20449;-76
2023/06/21 10:03:15;;;;;;;8.75;7.85;;;;;;;;;;5034351;28;20084;-76
2023/06/21 10:05:54;;;;;;;11.45;10.27;;;;;;;;;;5034707;28;20030;-76
2023/06/21 10:08:28;;;;;;;14.55;13.10;;;;;;;;;;5035952;28;20081;-76
2023/06/21 10:10:54;;;;;;;13.63;12.23;;;;;;;;;;5034130;28;20440;-76
2023/06/21 10:13:26;;;;;;;14.85;13.40;;;;;;;;;;5033970;28;20091;-76
2023/06/21 10:15:52;;;;;;;13.55;12.32;;;;;;;;;;5035083;28;20059;-76
2023/06/21 10:18:18;;;;;;;15.50;14.00;;;;;;;;;;5034723;28;20365;-76
2023/06/21 10:20:44;;;;;;;15.38;13.88;;;;;;;;;;5034791;28;20037;-76
2023/06/21 10:23:12;;;;;;;18.23;16.42;;;;;;;;;;5034705;28;20090;-76
2023/06/21 10:25:39;;;;;;;17.58;15.65;;;;;;;;;;5034442;28;20021;-76
2023/06/21 10:28:07;;;;;;;17.40;15.90;;;;;;;;;;5035591;28;20025;-76
2023/06/21 10:30:34;;;;;;;15.30;13.80;;;;;;;;;;5037871;28;20415;-75
2023/06/21 10:33:01;;;;;;;15.50;13.88;;;;;;;;;;5037052;28;20033;-76
2023/06/21 10:35:28;;;;;;;14.77;13.38;;;;;;;;;;5036778;28;20065;-76
2023/06/21 10:38:11;;;;;;;16.35;14.65;;;;;;;;;;5036977;28;20029;-76
2023/06/21 10:40:37;;;;;;;19.38;17.55;;;;;;;;;;5036729;28;20041;-76
2023/06/21 10:43:04;;;;;;;15.40;13.90;;;;;;;;;;5035822;28;20021;-76
2023/06/21 10:45:31;;;;;;;14.70;13.18;;;;;;;;;;5038083;28;20040;-76
2023/06/21 10:47:57;;;;;;;13.90;12.60;;;;;;;;;;5038274;28;20033;-76
2023/06/21 10:50:23;;;;;;;13.10;11.80;;;;;;;;;;5037825;28;20057;-76
2023/06/21 10:52:54;;;;;;;14.30;12.90;;;;;;;;;;5036998;28;20411;-76
2023/06/21 10:55:21;;;;;;;14.32;12.95;;;;;;;;;;5037919;28;20030;-76
2023/06/21 10:57:52;;;;;;;18.02;11.35;;;;;;;;;;5038687;28;20018;-76
2023/06/21 11:00:18;;;;;;;13.88;12.35;;;;;;;;;;5038461;28;20091;-76
2023/06/21 11:02:44;;;;;;;13.60;10.68;;;;;;;;;;5036923;28;20029;-75
2023/06/21 11:05:18;;;;;;;10.80;9.30;;;;;;;;;;5038360;28;20044;-76
2023/06/21 11:08:06;;;;;;;13.40;11.68;;;;;;;;;;5038086;28;20067;-76
2023/06/21 11:10:50;;;;;;;10.63;9.30;;;;;;;;;;5037163;28;20095;-76
2023/06/21 11:13:18;;;;;;;10.38;9.27;;;;;;;;;;5038451;28;20077;-76
2023/06/21 11:15:47;;;;;;;12.30;11.00;;;;;;;;;;5037535;28;20113;-76
2023/06/21 11:18:20;;;;;;;10.63;9.52;;;;;;;;;;5037731;28;20028;-76
2023/06/21 11:20:50;;;;;;;11.38;10.23;;;;;;;;;;5038023;28;20128;-76
2023/06/21 11:23:17;;;;;;;12.88;10.25;;;;;;;;;;5037783;28;20104;-76
2023/06/21 11:26:11;;;;;;;13.38;10.13;;;;;;;;;;5036595;28;20037;-76
2023/06/21 11:28:37;;;;;;;15.35;11.00;;;;;;;;;;5036380;28;20038;-76
2023/06/21 11:31:14;;;;;;;13.95;9.23;;;;;;;;;;5037301;28;20030;-76
2023/06/21 11:33:56;;;;;;;17.92;10.13;;;;;;;;;;5037311;28;20029;-76
2023/06/21 11:36:29;;;;;;;13.98;10.55;;;;;;;;;;5037855;28;20032;-76
2023/06/21 11:39:00;;;;;;;15.02;10.68;;;;;;;;;;5035819;28;20105;-75
2023/06/21 11:41:40;;;;;;;13.70;11.52;;;;;;;;;;5036091;28;20071;-76
2023/06/21 11:44:06;;;;;;;12.45;10.25;;;;;;;;;;5037792;28;20076;-75
2023/06/21 11:46:32;;;;;;;14.63;10.82;;;;;;;;;;5052472;28;20056;-76
2023/06/21 11:48:59;;;;;;;12.43;10.30;;;;;;;;;;5035714;28;20065;-76
2023/06/21 11:51:25;;;;;;;14.45;10.32;;;;;;;;;;5034847;28;20021;-76
2023/06/21 11:53:51;;;;;;;12.63;10.30;;;;;;;;;;5035128;28;20028;-76
2023/06/21 11:56:19;;;;;;;11.93;9.43;;;;;;;;;;5035901;28;20083;-75
2023/06/21 11:58:46;;;;;;;16.20;10.80;;;;;;;;;;5036017;28;20024;-75
2023/06/21 12:01:13;;;;;;;13.85;9.90;;;;;;;;;;5036544;28;20121;-76
2023/06/21 12:03:39;;;;;;;13.90;10.70;;;;;;;;;;5036322;28;20517;-75
2023/06/21 12:06:05;;;;;;;16.08;11.98;;;;;;;;;;5036503;28;20027;-76
2023/06/21 12:08:32;;;;;;;13.90;10.20;;;;;;;;;;5037243;28;20028;-76
2023/06/21 12:11:01;;;;;;;12.32;9.38;;;;;;;;;;5036494;28;20029;-76
2023/06/21 12:13:28;;;;;;;11.52;8.05;;;;;;;;;;5036399;28;20045;-75
2023/06/21 12:15:54;;;;;;;10.38;6.68;;;;;;;;;;5036175;28;20049;-75
2023/06/21 12:18:21;;;;;;;12.00;7.55;;;;;;;;;;5036172;28;20030;-76
2023/06/21 12:20:48;;;;;;;14.10;8.50;;;;;;;;;;5035901;28;20061;-75
2023/06/21 12:23:14;;;;;;;11.13;7.07;;;;;;;;;;5036332;28;20030;-76
2023/06/21 12:25:44;;;;;;;11.05;8.20;;;;;;;;;;5036457;28;20037;-76
2023/06/21 12:28:12;;;;;;;10.98;7.60;;;;;;;;;;5036146;28;20021;-75
2023/06/21 12:30:47;;;;;;;13.65;9.10;;;;;;;;;;5036068;28;20127;-75
2023/06/21 12:33:13;;;;;;;11.90;8.95;;;;;;;;;;5035212;28;20140;-75
2023/06/21 12:35:39;;;;;;;9.75;7.85;;;;;;;;;;5035210;28;20034;-75
2023/06/21 12:38:17;;;;;;;10.02;8.15;;;;;;;;;;5035600;28;20037;-75
2023/06/21 12:41:00;;;;;;;11.07;8.68;;;;;;;;;;5036544;28;20063;-75
2023/06/21 12:43:34;;;;;;;11.77;8.80;;;;;;;;;;5036139;28;20021;-75
2023/06/21 12:46:00;;;;;;;10.95;8.85;;;;;;;;;;5036848;28;20021;-75
2023/06/21 12:48:26;;;;;;;12.07;9.27;;;;;;;;;;5036179;28;20485;-75
2023/06/21 12:50:55;;;;;;;12.95;8.50;;;;;;;;;;5034491;28;20098;-75
2023/06/21 12:53:21;;;;;;;;;;;;;;;;;;5035840;28;20079;-76
2023/06/21 12:55:47;;;;;;;9.73;8.07;;;;;;;;;;5035004;28;19908;-76
2023/06/21 12:58:13;;;;;;;10.13;8.00;;;;;;;;;;5034407;28;20112;-76
2023/06/21 13:00:39;;;;;;;9.55;7.30;;;;;;;;;;5034032;28;20112;-76
2023/06/21 13:03:05;;;;;;;12.15;7.65;;;;;;;;;;5034846;28;20029;-76
2023/06/21 13:05:32;;;;;;;11.48;7.70;;;;;;;;;;5033218;28;20029;-75
2023/06/21 13:07:59;;;;;;;10.38;7.78;;;;;;;;;;5033096;28;20029;-76
2023/06/21 13:10:25;;;;;;;13.40;8.13;;;;;;;;;;5034020;28;20033;-75
2023/06/21 13:12:51;;;;;;;11.93;7.70;;;;;;;;;;5035104;28;20025;-76
2023/06/21 13:15:17;;;;;;;12.32;7.93;;;;;;;;;;5034933;28;20021;-76
2023/06/21 13:17:43;;;;;;;12.27;8.70;;;;;;;;;;5034206;28;20444;-75
2023/06/21 13:20:10;;;;;;;9.68;7.22;;;;;;;;;;5032249;28;20427;-75
2023/06/21 13:22:36;;;;;;;10.32;7.15;;;;;;;;;;5014500;28;20362;-75
2023/06/21 13:25:02;;;;;;;10.75;7.65;;;;;;;;;;5014132;28;20457;-76
2023/06/21 13:27:28;;;;;;;11.68;6.80;;;;;;;;;;5013752;28;20492;-75
2023/06/21 13:29:54;;;;;;;8.73;6.45;;;;;;;;;;5013493;28;20030;-75
2023/06/21 13:32:20;;;;;;;8.68;6.50;;;;;;;;;;5013448;28;20037;-75
2023/06/21 13:34:46;;;;;;;7.30;5.63;;;;;;;;;;5014062;28;20048;-75
2023/06/21 13:37:12;;;;;;;7.57;6.00;;;;;;;;;;5013958;28;20440;-75
2023/06/21 13:39:38;;;;;;;7.30;5.65;;;;;;;;;;5014509;28;20078;-75
2023/06/21 13:42:05;;;;;;;7.20;5.45;;;;;;;;;;5013880;28;20022;-75
2023/06/21 13:44:31;;;;;;;7.25;5.53;;;;;;;;;;5013904;28;20018;-74
2023/06/21 13:46:57;;;;;;;10.77;7.07;;;;;;;;;;5013690;28;20022;-74
2023/06/21 13:49:23;;;;;;;9.10;6.53;;;;;;;;;;5012450;28;20121;-75
2023/06/21 13:51:49;;;;;;;10.55;5.80;;;;;;;;;;5013614;28;20035;-75
2023/06/21 13:54:15;;;;;;;9.52;7.13;;;;;;;;;;5013581;28;20026;-75
2023/06/21 13:56:41;;;;;;;10.27;7.45;;;;;;;;;;5013060;28;20029;-75
2023/06/21 13:59:08;;;;;;;9.57;6.38;;;;;;;;;;5013782;28;20057;-75
2023/06/21 14:01:35;;;;;;;9.70;6.10;;;;;;;;;;5014206;28;20029;-74
2023/06/21 14:04:02;;;;;;;9.52;6.15;;;;;;;;;;5017115;28;20028;-75
2023/06/21 14:06:28;;;;;;;9.75;6.93;;;;;;;;;;5017369;28;20052;-75
2023/06/21 14:08:54;;;;;;;10.98;7.90;;;;;;;;;;5017691;28;20030;-75
2023/06/21 14:11:20;;;;;;;12.57;8.50;;;;;;;;;;5017255;28;20445;-75
2023/06/21 14:13:46;;;;;;;12.52;8.98;;;;;;;;;;5016488;28;20500;-75
2023/06/21 14:16:12;;;;;;;10.80;9.02;;;;;;;;;;5016667;28;20037;-75
2023/06/21 14:18:39;;;;;;;11.88;10.02;;;;;;;;;;5017148;28;20030;-75
2023/06/21 14:21:07;;;;;;;12.57;9.00;;;;;;;;;;5016481;28;20065;-75
2023/06/21 14:23:34;;;;;;;12.50;8.53;;;;;;;;;;5016987;28;20053;-75
2023/06/21 14:26:00;;;;;;;11.27;9.30;;;;;;;;;;5017284;28;20243;-75
2023/06/21 14:28:26;;;;;;;11.27;9.70;;;;;;;;;;5016575;28;20350;-74